createdAt,value
2022-12-23T00:00:49.147Z,997.64
2022-12-23T00:01:48.103Z,997.58
2022-12-23T00:02:47.087Z,997.61
2022-12-23T00:03:46.918Z,997.61
2022-12-23T00:04:46.833Z,997.59
2022-12-23T00:05:46.838Z,997.59
2022-12-23T00:06:46.819Z,997.63
2022-12-23T00:07:46.816Z,997.59
2022-12-23T00:08:46.905Z,997.57
2022-12-23T00:09:46.761Z,997.59
2022-12-23T00:10:46.763Z,997.54
2022-12-23T00:12:57.455Z,997.58
2022-12-23T00:13:58.429Z,997.52
2022-12-23T00:14:58.508Z,997.53
2022-12-23T00:15:58.440Z,997.51
2022-12-23T00:16:58.503Z,997.57
2022-12-23T00:17:58.364Z,997.55
2022-12-23T00:18:58.383Z,997.56
2022-12-23T00:19:58.366Z,997.51
2022-12-23T00:21:03.324Z,997.55
2022-12-23T00:21:58.334Z,997.55
2022-12-23T00:22:58.336Z,997.58
2022-12-23T00:23:58.314Z,997.62
2022-12-23T00:24:58.295Z,997.60
2022-12-23T00:25:58.293Z,997.55
2022-12-23T00:26:58.299Z,997.55
2022-12-23T00:27:58.251Z,997.57
2022-12-23T00:28:58.283Z,997.56
2022-12-23T00:29:58.248Z,997.58
2022-12-23T00:30:58.331Z,997.60
2022-12-23T00:31:58.308Z,997.60
2022-12-23T00:32:58.205Z,997.62
2022-12-23T00:33:58.207Z,997.60
2022-12-23T00:34:58.207Z,997.62
2022-12-23T00:35:58.235Z,997.60
2022-12-23T00:36:58.172Z,997.59
2022-12-23T00:37:58.171Z,997.62
2022-12-23T00:38:58.147Z,997.69
2022-12-23T00:40:04.269Z,997.75
2022-12-23T00:40:58.165Z,997.75
2022-12-23T00:41:58.126Z,997.74
2022-12-23T00:42:58.089Z,997.77
2022-12-23T00:43:58.111Z,997.77
2022-12-23T00:44:58.096Z,997.76
2022-12-23T00:45:58.138Z,997.77
2022-12-23T00:46:58.069Z,997.81
2022-12-23T00:47:58.038Z,997.84
2022-12-23T00:48:58.040Z,997.81
2022-12-23T00:49:58.029Z,997.83
2022-12-23T00:50:58.018Z,997.78
2022-12-23T00:52:04.561Z,997.81
2022-12-23T00:52:57.983Z,997.86
2022-12-23T00:53:57.971Z,997.86
2022-12-23T00:54:57.954Z,997.87
2022-12-23T00:55:57.967Z,997.88
2022-12-23T00:56:57.962Z,997.85
2022-12-23T00:57:57.948Z,997.84
2022-12-23T00:58:57.911Z,997.89
2022-12-23T00:59:57.915Z,997.89
2022-12-23T01:00:57.972Z,997.87
2022-12-23T01:01:58.154Z,997.89
2022-12-23T01:02:58.080Z,997.90
2022-12-23T01:03:57.877Z,997.86
2022-12-23T01:04:57.869Z,997.90
2022-12-23T01:05:57.844Z,997.96
2022-12-23T01:06:57.818Z,997.95
2022-12-23T01:07:57.858Z,997.89
2022-12-23T01:08:57.801Z,997.91
2022-12-23T01:09:57.827Z,997.94
2022-12-23T01:10:57.798Z,997.95
2022-12-23T01:11:57.807Z,997.95
2022-12-23T01:12:57.764Z,997.98
2022-12-23T01:13:57.773Z,997.98
2022-12-23T01:14:57.742Z,997.99
2022-12-23T01:15:57.728Z,998.03
2022-12-23T01:16:57.780Z,998.01
2022-12-23T01:17:57.717Z,998.06
2022-12-23T01:18:57.719Z,998.09
2022-12-23T01:19:57.713Z,998.11
2022-12-23T01:20:57.686Z,998.14
2022-12-23T01:22:04.227Z,998.13
2022-12-23T01:22:57.665Z,998.17
2022-12-23T01:23:57.674Z,998.19
2022-12-23T01:24:57.642Z,998.18
2022-12-23T01:25:57.641Z,998.25
2022-12-23T01:26:57.604Z,998.24
2022-12-23T01:27:57.601Z,998.26
2022-12-23T01:28:57.575Z,998.28
2022-12-23T01:29:57.598Z,998.28
2022-12-23T01:30:57.578Z,998.30
2022-12-23T01:31:57.654Z,998.30
2022-12-23T01:32:57.608Z,998.32
2022-12-23T01:33:57.552Z,998.33
2022-12-23T01:34:57.540Z,998.31
2022-12-23T01:35:57.510Z,998.36
2022-12-23T01:36:57.506Z,998.33
2022-12-23T01:37:57.492Z,998.34
2022-12-23T01:38:57.474Z,998.37
2022-12-23T01:39:57.493Z,998.39
2022-12-23T01:40:57.443Z,998.35
2022-12-23T01:42:03.972Z,998.30
2022-12-23T01:42:57.445Z,998.36
2022-12-23T01:43:57.429Z,998.34
2022-12-23T01:44:57.436Z,998.34
2022-12-23T01:45:57.445Z,998.35
2022-12-23T01:46:57.396Z,998.34
2022-12-23T01:47:57.385Z,998.34
2022-12-23T01:48:57.368Z,998.38
2022-12-23T01:49:57.379Z,998.37
2022-12-23T01:50:57.338Z,998.40
2022-12-23T01:51:57.350Z,998.42
2022-12-23T01:53:00.481Z,998.38
2022-12-23T01:53:57.334Z,998.37
2022-12-23T01:54:57.298Z,998.42
2022-12-23T01:55:57.309Z,998.49
2022-12-23T01:56:57.297Z,998.47
2022-12-23T01:57:57.273Z,998.49
2022-12-23T01:58:57.264Z,998.43
2022-12-23T01:59:57.263Z,998.49
2022-12-23T02:00:57.268Z,998.47
2022-12-23T02:02:03.956Z,998.49
2022-12-23T02:02:57.434Z,998.51
2022-12-23T02:03:57.289Z,998.47
2022-12-23T02:04:57.177Z,998.52
2022-12-23T02:05:57.197Z,998.61
2022-12-23T02:06:57.162Z,998.55
2022-12-23T02:07:57.176Z,998.62
2022-12-23T02:08:57.157Z,998.60
2022-12-23T02:09:57.152Z,998.62
2022-12-23T02:10:57.136Z,998.53
2022-12-23T02:11:57.108Z,998.55
2022-12-23T02:12:57.091Z,998.52
2022-12-23T02:13:57.093Z,998.52
2022-12-23T02:14:57.077Z,998.63
2022-12-23T02:15:57.085Z,998.58
2022-12-23T02:16:57.149Z,998.54
2022-12-23T02:17:57.043Z,998.59
2022-12-23T02:18:57.053Z,998.59
2022-12-23T02:19:57.041Z,998.61
2022-12-23T02:20:57.042Z,998.58
2022-12-23T02:21:57.022Z,998.59
2022-12-23T02:22:57.006Z,998.60
2022-12-23T02:23:57.005Z,998.63
2022-12-23T02:24:56.983Z,998.64
2022-12-23T02:25:56.949Z,998.61
2022-12-23T02:26:56.959Z,998.65
2022-12-23T02:27:56.924Z,998.68
2022-12-23T02:28:56.926Z,998.63
2022-12-23T02:29:56.928Z,998.60
2022-12-23T02:30:56.978Z,998.66
2022-12-23T02:31:56.889Z,998.70
2022-12-23T02:32:56.883Z,998.72
2022-12-23T02:33:56.879Z,998.71
2022-12-23T02:34:56.912Z,998.68
2022-12-23T02:35:56.849Z,998.71
2022-12-23T02:36:56.823Z,998.74
2022-12-23T02:37:56.846Z,998.74
2022-12-23T02:38:56.830Z,998.83
2022-12-23T02:39:56.806Z,998.81
2022-12-23T02:40:56.803Z,998.81
2022-12-23T02:41:56.811Z,998.82
2022-12-23T02:42:56.760Z,998.87
2022-12-23T02:43:56.758Z,998.85
2022-12-23T02:44:56.736Z,998.84
2022-12-23T02:45:56.794Z,998.85
2022-12-23T02:46:56.744Z,998.88
2022-12-23T02:47:56.740Z,998.90
2022-12-23T02:48:56.689Z,998.90
2022-12-23T02:49:56.691Z,998.82
2022-12-23T02:50:56.701Z,998.90
2022-12-23T02:52:04.188Z,998.92
2022-12-23T02:52:56.655Z,998.90
2022-12-23T02:53:56.642Z,998.91
2022-12-23T02:54:56.637Z,998.97
2022-12-23T02:55:56.641Z,998.92
2022-12-23T02:56:56.616Z,998.98
2022-12-23T02:57:56.618Z,998.98
2022-12-23T02:58:56.588Z,999.05
2022-12-23T02:59:56.588Z,999.01
2022-12-23T03:00:56.557Z,999.01
2022-12-23T03:01:56.720Z,999.01
2022-12-23T03:02:56.650Z,999.02
2022-12-23T03:03:56.597Z,998.99
2022-12-23T03:04:56.543Z,999.00
2022-12-23T03:05:56.594Z,999.00
2022-12-23T03:06:56.526Z,999.03
2022-12-23T03:07:56.509Z,999.02
2022-12-23T03:08:56.470Z,999.07
2022-12-23T03:09:56.499Z,999.00
2022-12-23T03:10:56.464Z,999.01
2022-12-23T03:12:02.985Z,999.04
2022-12-23T03:12:56.459Z,999.04
2022-12-23T03:13:56.433Z,999.06
2022-12-23T03:14:56.403Z,999.11
2022-12-23T03:15:56.490Z,999.14
2022-12-23T03:16:56.380Z,999.16
2022-12-23T03:17:56.404Z,999.15
2022-12-23T03:18:56.363Z,999.22
2022-12-23T03:19:56.375Z,999.20
2022-12-23T03:20:56.336Z,999.25
2022-12-23T03:21:56.361Z,999.34
2022-12-23T03:22:56.340Z,999.33
2022-12-23T03:23:56.337Z,999.32
2022-12-23T03:24:56.335Z,999.36
2022-12-23T03:25:56.325Z,999.35
2022-12-23T03:26:56.268Z,999.31
2022-12-23T03:27:56.265Z,999.38
2022-12-23T03:28:56.257Z,999.41
2022-12-23T03:29:56.266Z,999.33
2022-12-23T03:30:56.365Z,999.31
2022-12-23T03:31:56.247Z,999.30
2022-12-23T03:32:56.212Z,999.34
2022-12-23T03:33:56.237Z,999.33
2022-12-23T03:34:56.211Z,999.32
2022-12-23T03:35:56.208Z,999.27
2022-12-23T03:36:56.265Z,999.23
2022-12-23T03:37:56.165Z,999.29
2022-12-23T03:38:56.171Z,999.32
2022-12-23T03:39:56.154Z,999.33
2022-12-23T03:40:56.127Z,999.31
2022-12-23T03:41:56.123Z,999.33
2022-12-23T03:42:56.128Z,999.29
2022-12-23T03:43:56.083Z,999.31
2022-12-23T03:45:36.331Z,999.41
2022-12-23T03:45:56.151Z,999.43
2022-12-23T03:46:56.106Z,999.48
2022-12-23T03:47:56.057Z,999.42
2022-12-23T03:48:56.044Z,999.44
2022-12-23T03:49:56.017Z,999.43
2022-12-23T03:50:56.017Z,999.49
2022-12-23T03:51:55.996Z,999.48
2022-12-23T03:52:55.992Z,999.53
2022-12-23T03:53:56.005Z,999.52
2022-12-23T03:54:55.999Z,999.50
2022-12-23T03:55:55.949Z,999.45
2022-12-23T03:56:55.970Z,999.48
2022-12-23T03:57:55.956Z,999.52
2022-12-23T03:58:55.951Z,999.50
2022-12-23T03:59:55.926Z,999.50
2022-12-23T04:00:55.925Z,999.53
2022-12-23T04:02:02.602Z,999.47
2022-12-23T04:02:56.002Z,999.47
2022-12-23T04:03:56.203Z,999.52
2022-12-23T04:04:55.864Z,999.54
2022-12-23T04:05:55.865Z,999.49
2022-12-23T04:06:55.859Z,999.53
2022-12-23T04:07:55.862Z,999.44
2022-12-23T04:08:55.839Z,999.48
2022-12-23T04:09:55.822Z,999.45
2022-12-23T04:10:55.802Z,999.43
2022-12-23T04:11:55.782Z,999.42
2022-12-23T04:12:55.779Z,999.46
2022-12-23T04:13:55.781Z,999.46
2022-12-23T04:14:55.763Z,999.45
2022-12-23T04:15:55.770Z,999.49
2022-12-23T04:16:55.751Z,999.52
2022-12-23T04:17:55.744Z,999.44
2022-12-23T04:18:55.727Z,999.43
2022-12-23T04:20:56.803Z,999.44
2022-12-23T04:22:01.874Z,999.39
2022-12-23T04:22:55.330Z,999.39
2022-12-23T04:23:55.317Z,999.39
2022-12-23T04:24:55.283Z,999.40
2022-12-23T04:25:55.271Z,999.38
2022-12-23T04:26:55.264Z,999.37
2022-12-23T04:27:55.260Z,999.42
2022-12-23T04:28:55.223Z,999.40
2022-12-23T04:29:55.234Z,999.34
2022-12-23T04:30:55.275Z,999.33
2022-12-23T04:31:55.305Z,999.34
2022-12-23T04:32:55.199Z,999.35
2022-12-23T04:33:55.196Z,999.33
2022-12-23T04:34:55.155Z,999.37
2022-12-23T04:35:55.168Z,999.42
2022-12-23T04:36:55.130Z,999.40
2022-12-23T04:37:55.149Z,999.41
2022-12-23T04:38:55.170Z,999.40
2022-12-23T04:39:55.254Z,999.29
2022-12-23T04:40:55.085Z,999.32
2022-12-23T04:42:01.622Z,999.44
2022-12-23T04:42:55.077Z,999.34
2022-12-23T04:43:55.090Z,999.41
2022-12-23T04:44:55.047Z,999.44
2022-12-23T04:45:55.067Z,999.38
2022-12-23T04:46:55.133Z,999.51
2022-12-23T04:47:55.036Z,999.53
2022-12-23T04:48:55.021Z,999.58
2022-12-23T04:49:55.013Z,999.52
2022-12-23T04:50:54.996Z,999.58
2022-12-23T04:51:54.975Z,999.62
2022-12-23T04:52:54.951Z,999.62
2022-12-23T04:53:54.992Z,999.63
2022-12-23T04:54:54.928Z,999.65
2022-12-23T04:55:54.948Z,999.64
2022-12-23T04:56:54.909Z,999.70
2022-12-23T04:57:54.907Z,999.66
2022-12-23T04:58:54.945Z,999.60
2022-12-23T04:59:54.885Z,999.60
2022-12-23T05:00:54.926Z,999.58
2022-12-23T05:01:55.014Z,999.55
2022-12-23T05:02:55.073Z,999.62
2022-12-23T05:03:54.865Z,999.55
2022-12-23T05:04:54.835Z,999.57
2022-12-23T05:05:54.823Z,999.61
2022-12-23T05:06:54.875Z,999.61
2022-12-23T05:07:54.789Z,999.67
2022-12-23T05:08:54.820Z,999.65
2022-12-23T05:09:54.856Z,999.63
2022-12-23T05:10:54.783Z,999.66
2022-12-23T05:11:54.763Z,999.60
2022-12-23T05:12:54.756Z,999.59
2022-12-23T05:13:54.778Z,999.60
2022-12-23T05:14:54.732Z,999.60
2022-12-23T05:15:54.757Z,999.64
2022-12-23T05:16:54.867Z,999.55
2022-12-23T05:17:54.748Z,999.59
2022-12-23T05:18:54.674Z,999.58
2022-12-23T05:19:54.705Z,999.59
2022-12-23T05:20:54.689Z,999.62
2022-12-23T05:21:54.640Z,999.60
2022-12-23T05:22:54.625Z,999.62
2022-12-23T05:23:54.627Z,999.55
2022-12-23T05:24:54.622Z,999.60
2022-12-23T05:25:54.598Z,999.55
2022-12-23T05:26:59.738Z,999.54
2022-12-23T05:27:54.607Z,999.58
2022-12-23T05:28:54.567Z,999.57
2022-12-23T05:29:54.573Z,999.54
2022-12-23T05:30:54.534Z,999.55
2022-12-23T05:32:01.168Z,999.56
2022-12-23T05:32:54.517Z,999.54
2022-12-23T05:33:54.571Z,999.59
2022-12-23T05:34:54.488Z,999.60
2022-12-23T05:35:54.489Z,999.60
2022-12-23T05:36:54.489Z,999.60
2022-12-23T05:37:54.470Z,999.59
2022-12-23T05:38:54.446Z,999.66
2022-12-23T05:39:54.459Z,999.63
2022-12-23T05:40:54.494Z,999.68
2022-12-23T05:41:54.440Z,999.65
2022-12-23T05:42:54.405Z,999.68
2022-12-23T05:43:54.402Z,999.70
2022-12-23T05:44:54.380Z,999.70
2022-12-23T05:45:54.424Z,999.70
2022-12-23T05:46:54.384Z,999.69
2022-12-23T05:47:54.386Z,999.73
2022-12-23T05:48:54.365Z,999.65
2022-12-23T05:49:54.376Z,999.69
2022-12-23T05:50:54.308Z,999.68
2022-12-23T05:51:54.348Z,999.76
2022-12-23T05:52:54.318Z,999.74
2022-12-23T05:53:54.320Z,999.73
2022-12-23T05:54:54.272Z,999.69
2022-12-23T05:55:54.334Z,999.72
2022-12-23T05:56:54.269Z,999.70
2022-12-23T05:57:54.258Z,999.78
2022-12-23T05:58:54.238Z,999.82
2022-12-23T05:59:54.238Z,999.85
2022-12-23T06:00:54.428Z,999.86
2022-12-23T06:02:01.205Z,999.91
2022-12-23T06:02:54.637Z,999.90
2022-12-23T06:03:54.338Z,999.94
2022-12-23T06:04:54.234Z,999.95
2022-12-23T06:05:54.173Z,999.96
2022-12-23T06:06:54.144Z,999.92
2022-12-23T06:07:54.375Z,999.96
2022-12-23T06:08:59.335Z,999.90
2022-12-23T06:09:54.167Z,999.97
2022-12-23T06:10:54.133Z,999.96
2022-12-23T06:11:54.190Z,999.96
2022-12-23T06:12:54.084Z,1000.00
2022-12-23T06:13:54.087Z,1000.01
2022-12-23T06:14:54.103Z,1000.06
2022-12-23T06:15:54.100Z,1000.08
2022-12-23T06:16:54.131Z,1000.07
2022-12-23T06:17:54.096Z,1000.05
2022-12-23T06:18:54.016Z,1000.05
2022-12-23T06:19:54.041Z,1000.09
2022-12-23T06:20:54.011Z,1000.15
2022-12-23T06:22:00.541Z,1000.12
2022-12-23T06:22:53.976Z,1000.08
2022-12-23T06:23:53.997Z,1000.13
2022-12-23T06:24:53.971Z,1000.13
2022-12-23T06:25:53.957Z,1000.11
2022-12-23T06:26:57.323Z,1000.12
2022-12-23T06:27:53.937Z,1000.13
2022-12-23T06:28:53.907Z,1000.06
2022-12-23T06:29:53.921Z,1000.07
2022-12-23T06:30:53.886Z,1000.08
2022-12-23T06:31:54.013Z,1000.06
2022-12-23T06:32:53.888Z,1000.02
2022-12-23T06:33:53.866Z,1000.02
2022-12-23T06:34:53.842Z,999.99
2022-12-23T06:35:53.850Z,1000.01
2022-12-23T06:36:53.811Z,1000.01
2022-12-23T06:37:53.811Z,999.96
2022-12-23T06:38:53.879Z,999.96
2022-12-23T06:39:53.826Z,999.92
2022-12-23T06:40:53.999Z,999.87
2022-12-23T06:42:00.927Z,999.86
2022-12-23T06:42:53.779Z,999.85
2022-12-23T06:43:54.589Z,999.82
2022-12-23T06:44:53.745Z,999.85
2022-12-23T06:45:53.817Z,999.86
2022-12-23T06:46:53.748Z,999.86
2022-12-23T06:47:53.720Z,999.88
2022-12-23T06:48:53.738Z,999.87
2022-12-23T06:49:53.686Z,999.92
2022-12-23T06:50:53.668Z,999.92
2022-12-23T06:51:53.697Z,999.95
2022-12-23T06:52:53.653Z,999.96
2022-12-23T06:53:53.641Z,999.95
2022-12-23T06:54:53.637Z,999.90
2022-12-23T06:55:53.631Z,999.93
2022-12-23T06:56:53.610Z,999.94
2022-12-23T06:57:53.623Z,999.95
2022-12-23T06:58:53.609Z,999.94
2022-12-23T06:59:53.601Z,999.94
2022-12-23T07:00:53.580Z,999.95
2022-12-23T07:02:00.309Z,999.97
2022-12-23T07:02:53.672Z,999.87
2022-12-23T07:03:53.542Z,999.86
2022-12-23T07:04:53.528Z,999.85
2022-12-23T07:05:53.525Z,999.81
2022-12-23T07:06:53.516Z,999.90
2022-12-23T07:07:53.517Z,999.81
2022-12-23T07:08:53.497Z,999.83
2022-12-23T07:09:53.477Z,999.79
2022-12-23T07:10:53.444Z,999.81
2022-12-23T07:11:53.470Z,999.85
2022-12-23T07:12:53.463Z,999.85
2022-12-23T07:13:53.419Z,999.89
2022-12-23T07:14:53.431Z,999.92
2022-12-23T07:15:53.405Z,999.94
2022-12-23T07:16:53.453Z,1000.01
2022-12-23T07:17:53.395Z,1000.05
2022-12-23T07:18:53.368Z,1000.14
2022-12-23T07:19:53.368Z,1000.15
2022-12-23T07:20:53.337Z,1000.22
2022-12-23T07:23:04.049Z,1000.29
2022-12-23T07:24:04.980Z,1000.35
2022-12-23T07:25:04.993Z,1000.33
2022-12-23T07:26:04.970Z,1000.36
2022-12-23T07:27:05.009Z,1000.39
2022-12-23T07:28:04.949Z,1000.43
2022-12-23T07:29:04.935Z,1000.49
2022-12-23T07:30:04.906Z,1000.48
2022-12-23T07:31:05.017Z,1000.53
2022-12-23T07:32:04.973Z,1000.54
2022-12-23T07:33:04.903Z,1000.52
2022-12-23T07:34:04.872Z,1000.55
2022-12-23T07:35:04.891Z,1000.58
2022-12-23T07:36:04.862Z,1000.61
2022-12-23T07:37:04.883Z,1000.62
2022-12-23T07:38:04.822Z,1000.64
2022-12-23T07:39:04.822Z,1000.67
2022-12-23T07:40:09.499Z,1000.63
2022-12-23T07:41:04.822Z,1000.65
2022-12-23T07:42:33.784Z,1000.56
2022-12-23T07:43:04.834Z,1000.54
2022-12-23T07:44:04.773Z,1000.50
2022-12-23T07:45:04.751Z,1000.44
2022-12-23T07:46:04.808Z,1000.51
2022-12-23T07:47:04.727Z,1000.51
2022-12-23T07:48:04.720Z,1000.47
2022-12-23T07:49:04.915Z,1000.54
2022-12-23T07:50:04.718Z,1000.55
2022-12-23T07:51:04.703Z,1000.53
2022-12-23T07:52:04.713Z,1000.52
2022-12-23T07:53:04.689Z,1000.51
2022-12-23T07:54:04.650Z,1000.52
2022-12-23T07:55:04.630Z,1000.51
2022-12-23T07:56:04.648Z,1000.60
2022-12-23T07:57:04.642Z,1000.59
2022-12-23T07:58:04.633Z,1000.55
2022-12-23T07:59:04.623Z,1000.51
2022-12-23T08:00:04.729Z,1000.53
2022-12-23T08:01:04.604Z,1000.52
2022-12-23T08:02:04.894Z,1000.54
2022-12-23T08:03:04.687Z,1000.58
2022-12-23T08:04:04.541Z,1000.54
2022-12-23T08:05:04.581Z,1000.55
2022-12-23T08:06:04.598Z,1000.49
2022-12-23T08:07:04.504Z,1000.49
2022-12-23T08:08:04.512Z,1000.57
2022-12-23T08:09:04.504Z,1000.55
2022-12-23T08:10:04.527Z,1000.55
2022-12-23T08:11:04.474Z,1000.60
2022-12-23T08:12:04.464Z,1000.56
2022-12-23T08:13:04.450Z,1000.53
2022-12-23T08:14:04.708Z,1000.53
2022-12-23T08:15:05.038Z,1000.55
2022-12-23T08:16:06.704Z,1000.55
2022-12-23T08:17:04.499Z,1000.58
2022-12-23T08:18:17.739Z,1000.58
2022-12-23T08:19:05.044Z,1000.60
2022-12-23T08:20:17.232Z,1000.59
2022-12-23T08:21:05.561Z,1000.52
2022-12-23T08:22:11.807Z,1000.54
2022-12-23T08:23:04.560Z,1000.53
2022-12-23T08:24:05.053Z,1000.59
2022-12-23T08:25:05.452Z,1000.55
2022-12-23T08:26:35.565Z,1000.53
2022-12-23T08:27:11.629Z,1000.58
2022-12-23T08:28:04.478Z,1000.57
2022-12-23T08:29:04.287Z,1000.59
2022-12-23T08:30:04.461Z,1000.55
2022-12-23T08:31:07.265Z,1000.48
2022-12-23T08:32:04.479Z,1000.46
2022-12-23T08:33:04.245Z,1000.47
2022-12-23T08:34:04.260Z,1000.44
2022-12-23T08:35:11.987Z,1000.44
2022-12-23T08:36:08.349Z,1000.42
2022-12-23T08:37:07.351Z,1000.43
2022-12-23T08:38:10.257Z,1000.41
2022-12-23T08:39:05.924Z,1000.39
2022-12-23T08:40:04.191Z,1000.44
2022-12-23T08:41:05.723Z,1000.42
2022-12-23T08:42:04.346Z,1000.40
2022-12-23T08:43:05.033Z,1000.36
2022-12-23T08:44:13.331Z,1000.37
2022-12-23T08:45:05.276Z,1000.39
2022-12-23T08:46:04.176Z,1000.38
2022-12-23T08:47:07.706Z,1000.39
2022-12-23T08:48:04.097Z,1000.42
2022-12-23T08:49:07.974Z,1000.42
2022-12-23T08:50:05.962Z,1000.43
2022-12-23T08:51:04.563Z,1000.41
2022-12-23T08:52:12.503Z,1000.45
2022-12-23T08:53:06.189Z,1000.45
2022-12-23T08:54:05.019Z,1000.47
2022-12-23T08:55:13.347Z,1000.43
2022-12-23T08:56:03.996Z,1000.42
2022-12-23T08:57:08.155Z,1000.46
2022-12-23T08:58:05.398Z,1000.37
2022-12-23T08:59:05.449Z,1000.35
2022-12-23T09:00:05.729Z,1000.35
2022-12-23T09:01:04.905Z,1000.36
2022-12-23T09:02:04.933Z,1000.37
2022-12-23T09:03:04.322Z,1000.40
2022-12-23T09:04:08.366Z,1000.31
2022-12-23T09:05:05.696Z,1000.31
2022-12-23T09:06:05.445Z,1000.35
2022-12-23T09:07:03.847Z,1000.34
2022-12-23T09:08:08.760Z,1000.35
2022-12-23T09:09:06.666Z,1000.39
2022-12-23T09:10:11.615Z,1000.40
2022-12-23T09:12:09.156Z,1000.46
2022-12-23T09:12:15.450Z,1000.46
2022-12-23T09:13:22.303Z,1000.40
2022-12-23T09:14:14.627Z,1000.40
2022-12-23T09:15:14.001Z,1000.41
2022-12-23T09:16:14.280Z,1000.44
2022-12-23T09:17:14.586Z,1000.40
2022-12-23T09:18:16.486Z,1000.41
2022-12-23T09:19:13.897Z,1000.42
2022-12-23T09:20:14.101Z,1000.41
2022-12-23T09:21:15.479Z,1000.43
2022-12-23T09:22:15.017Z,1000.42
2022-12-23T09:23:15.317Z,1000.47
2022-12-23T09:24:15.307Z,1000.40
2022-12-23T09:25:13.827Z,1000.37
2022-12-23T09:26:14.069Z,1000.34
2022-12-23T09:27:14.630Z,1000.33
2022-12-23T09:28:14.427Z,1000.26
2022-12-23T09:29:21.873Z,1000.28
2022-12-23T09:30:18.867Z,1000.28
2022-12-23T09:31:13.870Z,1000.22
2022-12-23T09:32:13.939Z,1000.19
2022-12-23T09:33:15.027Z,1000.17
2022-12-23T09:34:14.604Z,1000.18
2022-12-23T09:35:20.040Z,1000.14
2022-12-23T09:36:43.829Z,1000.11
2022-12-23T09:37:15.613Z,1000.06
2022-12-23T09:38:14.578Z,1000.12
2022-12-23T09:39:34.136Z,1000.13
2022-12-23T09:40:13.698Z,1000.16
2022-12-23T09:41:14.778Z,1000.17
2022-12-23T09:42:14.055Z,1000.13
2022-12-23T09:43:13.614Z,1000.10
2022-12-23T09:44:14.911Z,1000.07
2022-12-23T09:45:17.489Z,1000.07
2022-12-23T09:46:13.868Z,1000.07
2022-12-23T09:47:13.578Z,1000.08
2022-12-23T09:48:14.085Z,1000.04
2022-12-23T09:49:36.440Z,1000.08
2022-12-23T09:50:16.229Z,1000.04
2022-12-23T09:51:13.531Z,1000.02
2022-12-23T09:52:20.234Z,1000.01
2022-12-23T09:53:15.914Z,999.97
2022-12-23T09:54:17.076Z,999.93
2022-12-23T09:55:13.518Z,999.94
2022-12-23T09:56:13.493Z,999.93
2022-12-23T09:57:17.871Z,999.88
2022-12-23T09:58:15.240Z,999.83
2022-12-23T09:59:15.979Z,999.84
2022-12-23T10:00:13.443Z,999.81
2022-12-23T10:01:13.617Z,999.84
2022-12-23T10:02:13.583Z,999.79
2022-12-23T10:03:13.944Z,999.77
2022-12-23T10:04:13.491Z,999.74
2022-12-23T10:05:15.271Z,999.74
2022-12-23T10:06:15.015Z,999.69
2022-12-23T10:07:13.585Z,999.71
2022-12-23T10:08:13.357Z,999.66
2022-12-23T10:09:17.163Z,999.69
2022-12-23T10:10:13.334Z,999.70
2022-12-23T10:11:13.870Z,999.74
2022-12-23T10:12:14.214Z,999.73
2022-12-23T10:13:18.976Z,999.76
2022-12-23T10:14:23.841Z,999.72
2022-12-23T10:15:13.537Z,999.75
2022-12-23T10:16:14.791Z,999.75
2022-12-23T10:17:13.484Z,999.68
2022-12-23T10:18:13.246Z,999.61
2022-12-23T10:19:13.269Z,999.60
2022-12-23T10:20:14.242Z,999.64
2022-12-23T10:21:23.536Z,999.59
2022-12-23T10:22:13.192Z,999.57
2022-12-23T10:23:13.388Z,999.56
2022-12-23T10:24:14.441Z,999.50
2022-12-23T10:25:14.170Z,999.47
2022-12-23T10:26:17.174Z,999.52
2022-12-23T10:27:15.359Z,999.42
2022-12-23T10:28:13.351Z,999.36
2022-12-23T10:29:18.785Z,999.30
2022-12-23T10:30:34.272Z,999.25
2022-12-23T10:32:23.021Z,999.21
2022-12-23T10:33:13.627Z,999.21
2022-12-23T10:34:16.825Z,999.20
2022-12-23T10:35:15.024Z,999.22
2022-12-23T10:36:13.286Z,999.20
2022-12-23T10:37:26.382Z,999.18
2022-12-23T10:38:13.022Z,999.14
2022-12-23T10:39:13.636Z,999.11
2022-12-23T10:40:13.215Z,999.13
2022-12-23T10:41:12.981Z,999.09
2022-12-23T10:42:13.511Z,999.06
2022-12-23T10:43:13.521Z,999.05
2022-12-23T10:44:17.511Z,998.97
2022-12-23T10:45:12.920Z,998.93
2022-12-23T10:46:13.175Z,998.94
2022-12-23T10:47:17.523Z,998.94
2022-12-23T10:48:15.325Z,998.91
2022-12-23T10:49:13.429Z,998.89
2022-12-23T10:50:20.718Z,998.85
2022-12-23T10:51:13.491Z,998.86
2022-12-23T10:52:20.966Z,998.82
2022-12-23T10:53:15.901Z,998.83
2022-12-23T10:54:13.670Z,998.80
2022-12-23T10:55:13.675Z,998.75
2022-12-23T10:56:16.236Z,998.68
2022-12-23T10:57:13.341Z,998.62
2022-12-23T10:58:12.806Z,998.58
2022-12-23T10:59:18.541Z,998.60
2022-12-23T11:00:13.704Z,998.58
2022-12-23T11:01:18.896Z,998.56
2022-12-23T11:02:23.126Z,998.60
2022-12-23T11:03:14.797Z,998.62
2022-12-23T11:04:12.754Z,998.64
2022-12-23T11:05:12.733Z,998.65
2022-12-23T11:06:12.901Z,998.64
2022-12-23T11:07:43.497Z,998.64
2022-12-23T11:08:13.673Z,998.73
2022-12-23T11:09:14.803Z,998.70
2022-12-23T11:10:13.787Z,998.73
2022-12-23T11:11:14.478Z,998.74
2022-12-23T11:12:12.646Z,998.72
2022-12-23T11:13:13.045Z,998.72
2022-12-23T11:14:13.901Z,998.73
2022-12-23T11:15:12.596Z,998.70
2022-12-23T11:16:25.325Z,998.68
2022-12-23T11:17:12.588Z,998.61
2022-12-23T11:18:13.206Z,998.58
2022-12-23T11:19:17.873Z,998.57
2022-12-23T11:20:12.575Z,998.52
2022-12-23T11:21:13.167Z,998.49
2022-12-23T11:22:12.535Z,998.53
2022-12-23T11:23:13.178Z,998.50
2022-12-23T11:24:12.950Z,998.51
2022-12-23T11:25:13.480Z,998.55
2022-12-23T11:26:13.176Z,998.53
2022-12-23T11:27:13.171Z,998.50
2022-12-23T11:28:12.604Z,998.48
2022-12-23T11:29:13.374Z,998.46
2022-12-23T11:30:12.468Z,998.48
2022-12-23T11:31:13.686Z,998.44
2022-12-23T11:32:19.701Z,998.45
2022-12-23T11:33:13.861Z,998.42
2022-12-23T11:34:20.774Z,998.42
2022-12-23T11:35:12.403Z,998.32
2022-12-23T11:36:12.373Z,998.32
2022-12-23T11:37:12.341Z,998.36
2022-12-23T11:38:14.105Z,998.27
2022-12-23T11:39:16.717Z,998.23
2022-12-23T11:40:12.315Z,998.26
2022-12-23T11:41:12.489Z,998.22
2022-12-23T11:42:12.291Z,998.19
2022-12-23T11:43:13.197Z,998.16
2022-12-23T11:44:13.438Z,998.16
2022-12-23T11:45:12.873Z,998.15
2022-12-23T11:46:12.527Z,998.12
2022-12-23T11:47:12.452Z,998.08
2022-12-23T11:48:12.265Z,998.05
2022-12-23T11:49:12.461Z,998.03
2022-12-23T11:50:14.161Z,997.97
2022-12-23T11:51:15.755Z,997.93
2022-12-23T11:52:19.238Z,998.01
2022-12-23T11:53:18.539Z,997.94
2022-12-23T11:54:12.199Z,997.95
2022-12-23T11:55:16.175Z,997.94
2022-12-23T11:56:12.686Z,997.95
2022-12-23T11:57:12.881Z,997.96
2022-12-23T11:58:12.760Z,997.93
2022-12-23T11:59:14.458Z,997.95
2022-12-23T12:00:12.829Z,997.91
2022-12-23T12:01:12.084Z,997.87
2022-12-23T12:02:13.438Z,997.78
2022-12-23T12:03:12.042Z,997.76
2022-12-23T12:04:12.056Z,997.74
2022-12-23T12:05:12.069Z,997.73
2022-12-23T12:06:12.769Z,997.73
2022-12-23T12:07:13.586Z,997.64
2022-12-23T12:08:13.494Z,997.55
2022-12-23T12:09:13.375Z,997.52
2022-12-23T12:10:12.068Z,997.45
2022-12-23T12:11:12.036Z,997.44
2022-12-23T12:12:11.953Z,997.44
2022-12-23T12:13:12.489Z,997.34
2022-12-23T12:14:16.583Z,997.28
2022-12-23T12:15:12.126Z,997.25
2022-12-23T12:16:12.781Z,997.16
2022-12-23T12:17:12.239Z,997.16
2022-12-23T12:18:12.320Z,997.16
2022-12-23T12:19:11.900Z,997.11
2022-12-23T12:20:11.933Z,997.09
2022-12-23T12:21:11.878Z,997.08
2022-12-23T12:22:11.849Z,997.04
2022-12-23T12:23:12.056Z,997.01
2022-12-23T12:24:18.725Z,996.99
2022-12-23T12:25:11.847Z,996.90
2022-12-23T12:26:12.736Z,996.87
2022-12-23T12:27:11.822Z,996.84